sensor_id;sensor_type;location;lat;lon;timestamp;P1;durP1;ratioP1;P2;durP2;ratioP2
3953;SDS011;1991;48.682;9.030;2022-10-16T00:02:00;1.20;;;1.02;;
3953;SDS011;1991;48.682;9.030;2022-10-16T00:04:25;4.30;;;1.25;;
3953;SDS011;1991;48.682;9.030;2022-10-16T00:06:51;2.08;;;1.05;;
3953;SDS011;1991;48.682;9.030;2022-10-16T00:09:16;2.80;;;1.48;;
3953;SDS011;1991;48.682;9.030;2022-10-16T00:11:42;2.15;;;1.10;;
3953;SDS011;1991;48.682;9.030;2022-10-16T00:14:09;2.97;;;1.27;;
3953;SDS011;1991;48.682;9.030;2022-10-16T00:16:37;2.67;;;1.00;;
3953;SDS011;1991;48.682;9.030;2022-10-16T00:19:03;2.97;;;1.13;;
3953;SDS011;1991;48.682;9.030;2022-10-16T00:21:29;3.47;;;1.35;;
3953;SDS011;1991;48.682;9.030;2022-10-16T00:23:57;3.25;;;1.23;;
3953;SDS011;1991;48.682;9.030;2022-10-16T00:26:25;2.20;;;1.17;;
3953;SDS011;1991;48.682;9.030;2022-10-16T00:28:53;1.33;;;1.20;;
3953;SDS011;1991;48.682;9.030;2022-10-16T00:31:19;2.97;;;1.00;;
3953;SDS011;1991;48.682;9.030;2022-10-16T00:33:46;1.08;;;0.90;;
3953;SDS011;1991;48.682;9.030;2022-10-16T00:36:13;2.45;;;1.00;;
3953;SDS011;1991;48.682;9.030;2022-10-16T00:38:40;4.05;;;1.23;;
3953;SDS011;1991;48.682;9.030;2022-10-16T00:41:06;1.10;;;1.00;;
3953;SDS011;1991;48.682;9.030;2022-10-16T00:43:36;1.63;;;0.90;;
3953;SDS011;1991;48.682;9.030;2022-10-16T00:46:12;0.85;;;0.85;;
3953;SDS011;1991;48.682;9.030;2022-10-16T00:48:38;1.08;;;0.90;;
3953;SDS011;1991;48.682;9.030;2022-10-16T00:51:04;2.90;;;1.67;;
3953;SDS011;1991;48.682;9.030;2022-10-16T00:53:32;2.38;;;0.80;;
3953;SDS011;1991;48.682;9.030;2022-10-16T00:55:57;1.75;;;1.05;;
3953;SDS011;1991;48.682;9.030;2022-10-16T00:58:23;1.52;;;0.88;;
3953;SDS011;1991;48.682;9.030;2022-10-16T01:00:48;3.25;;;0.80;;
3953;SDS011;1991;48.682;9.030;2022-10-16T01:03:24;1.38;;;0.80;;
3953;SDS011;1991;48.682;9.030;2022-10-16T01:05:58;1.60;;;0.90;;
3953;SDS011;1991;48.682;9.030;2022-10-16T01:08:29;3.08;;;1.00;;
3953;SDS011;1991;48.682;9.030;2022-10-16T01:14:25;1.48;;;0.70;;
3953;SDS011;1991;48.682;9.030;2022-10-16T01:17:04;2.03;;;0.80;;
3953;SDS011;1991;48.682;9.030;2022-10-16T01:19:57;1.42;;;0.93;;
3953;SDS011;1991;48.682;9.030;2022-10-16T01:22:47;2.42;;;0.90;;
3953;SDS011;1991;48.682;9.030;2022-10-16T01:28:18;3.58;;;1.00;;
3953;SDS011;1991;48.682;9.030;2022-10-16T01:30:50;2.08;;;1.20;;
3953;SDS011;1991;48.682;9.030;2022-10-16T01:33:28;1.13;;;0.80;;
3953;SDS011;1991;48.682;9.030;2022-10-16T01:36:02;4.60;;;1.00;;
3953;SDS011;1991;48.682;9.030;2022-10-16T01:38:37;5.45;;;1.10;;
3953;SDS011;1991;48.682;9.030;2022-10-16T01:41:18;3.92;;;1.30;;
3953;SDS011;1991;48.682;9.030;2022-10-16T01:43:50;1.85;;;0.88;;
3953;SDS011;1991;48.682;9.030;2022-10-16T01:46:22;1.95;;;1.00;;
3953;SDS011;1991;48.682;9.030;2022-10-16T01:48:49;2.95;;;1.08;;
3953;SDS011;1991;48.682;9.030;2022-10-16T01:51:17;2.47;;;1.00;;
3953;SDS011;1991;48.682;9.030;2022-10-16T01:53:45;2.15;;;0.88;;
3953;SDS011;1991;48.682;9.030;2022-10-16T01:56:16;3.80;;;0.73;;
3953;SDS011;1991;48.682;9.030;2022-10-16T01:58:47;1.48;;;0.80;;
3953;SDS011;1991;48.682;9.030;2022-10-16T02:01:34;2.00;;;0.80;;
3953;SDS011;1991;48.682;9.030;2022-10-16T02:04:09;1.75;;;0.85;;
3953;SDS011;1991;48.682;9.030;2022-10-16T02:06:43;2.88;;;0.60;;
3953;SDS011;1991;48.682;9.030;2022-10-16T02:09:09;0.73;;;0.70;;
3953;SDS011;1991;48.682;9.030;2022-10-16T02:11:35;2.95;;;0.80;;
3953;SDS011;1991;48.682;9.030;2022-10-16T02:14:02;3.53;;;0.60;;
3953;SDS011;1991;48.682;9.030;2022-10-16T02:16:34;3.10;;;0.88;;
3953;SDS011;1991;48.682;9.030;2022-10-16T02:19:05;1.30;;;0.80;;
3953;SDS011;1991;48.682;9.030;2022-10-16T02:22:15;2.97;;;0.90;;
3953;SDS011;1991;48.682;9.030;2022-10-16T02:27:27;1.50;;;0.90;;
3953;SDS011;1991;48.682;9.030;2022-10-16T02:32:41;2.25;;;0.90;;
3953;SDS011;1991;48.682;9.030;2022-10-16T02:35:09;0.68;;;0.68;;
3953;SDS011;1991;48.682;9.030;2022-10-16T02:37:36;1.27;;;0.80;;
3953;SDS011;1991;48.682;9.030;2022-10-16T02:40:03;2.60;;;0.90;;
3953;SDS011;1991;48.682;9.030;2022-10-16T02:42:34;1.00;;;0.88;;
3953;SDS011;1991;48.682;9.030;2022-10-16T02:45:02;1.10;;;0.80;;
3953;SDS011;1991;48.682;9.030;2022-10-16T02:47:28;4.88;;;1.00;;
3953;SDS011;1991;48.682;9.030;2022-10-16T02:49:54;2.17;;;1.13;;
3953;SDS011;1991;48.682;9.030;2022-10-16T02:52:20;3.13;;;0.68;;
3953;SDS011;1991;48.682;9.030;2022-10-16T02:54:45;1.88;;;0.85;;
3953;SDS011;1991;48.682;9.030;2022-10-16T02:57:11;3.90;;;0.80;;
3953;SDS011;1991;48.682;9.030;2022-10-16T02:59:36;2.13;;;1.00;;
3953;SDS011;1991;48.682;9.030;2022-10-16T03:02:02;2.85;;;0.70;;
3953;SDS011;1991;48.682;9.030;2022-10-16T03:04:28;2.75;;;1.10;;
3953;SDS011;1991;48.682;9.030;2022-10-16T03:06:53;1.70;;;0.82;;
3953;SDS011;1991;48.682;9.030;2022-10-16T03:09:19;1.55;;;0.75;;
3953;SDS011;1991;48.682;9.030;2022-10-16T03:11:44;4.63;;;0.90;;
3953;SDS011;1991;48.682;9.030;2022-10-16T03:14:10;2.72;;;0.73;;
3953;SDS011;1991;48.682;9.030;2022-10-16T03:16:36;1.38;;;0.70;;
3953;SDS011;1991;48.682;9.030;2022-10-16T03:19:01;2.38;;;0.88;;
3953;SDS011;1991;48.682;9.030;2022-10-16T03:21:27;1.35;;;0.63;;
3953;SDS011;1991;48.682;9.030;2022-10-16T03:23:52;2.08;;;0.63;;
3953;SDS011;1991;48.682;9.030;2022-10-16T03:26:18;1.73;;;0.77;;
3953;SDS011;1991;48.682;9.030;2022-10-16T03:28:43;2.60;;;0.93;;
3953;SDS011;1991;48.682;9.030;2022-10-16T03:31:09;4.20;;;0.80;;
3953;SDS011;1991;48.682;9.030;2022-10-16T03:33:35;3.13;;;0.70;;
3953;SDS011;1991;48.682;9.030;2022-10-16T03:36:00;2.47;;;0.80;;
3953;SDS011;1991;48.682;9.030;2022-10-16T03:38:26;1.90;;;0.85;;
3953;SDS011;1991;48.682;9.030;2022-10-16T03:40:51;2.40;;;0.80;;
3953;SDS011;1991;48.682;9.030;2022-10-16T03:43:17;1.60;;;0.75;;
3953;SDS011;1991;48.682;9.030;2022-10-16T03:45:42;3.72;;;1.00;;
3953;SDS011;1991;48.682;9.030;2022-10-16T03:48:08;7.60;;;0.90;;
3953;SDS011;1991;48.682;9.030;2022-10-16T03:50:34;1.27;;;0.80;;
3953;SDS011;1991;48.682;9.030;2022-10-16T03:52:59;0.98;;;0.70;;
3953;SDS011;1991;48.682;9.030;2022-10-16T03:55:25;4.13;;;0.90;;
3953;SDS011;1991;48.682;9.030;2022-10-16T03:57:50;1.17;;;0.85;;
3953;SDS011;1991;48.682;9.030;2022-10-16T04:00:16;1.92;;;1.20;;
3953;SDS011;1991;48.682;9.030;2022-10-16T04:02:42;1.20;;;0.57;;
3953;SDS011;1991;48.682;9.030;2022-10-16T04:05:07;1.63;;;0.75;;
3953;SDS011;1991;48.682;9.030;2022-10-16T04:07:33;2.72;;;1.25;;
3953;SDS011;1991;48.682;9.030;2022-10-16T04:09:59;5.57;;;1.10;;
3953;SDS011;1991;48.682;9.030;2022-10-16T04:12:25;1.55;;;1.17;;
3953;SDS011;1991;48.682;9.030;2022-10-16T04:14:51;2.10;;;0.98;;
3953;SDS011;1991;48.682;9.030;2022-10-16T04:17:17;2.28;;;0.57;;
3953;SDS011;1991;48.682;9.030;2022-10-16T04:19:42;1.23;;;0.85;;
3953;SDS011;1991;48.682;9.030;2022-10-16T04:22:08;2.67;;;0.80;;
3953;SDS011;1991;48.682;9.030;2022-10-16T04:24:34;3.15;;;1.13;;
3953;SDS011;1991;48.682;9.030;2022-10-16T04:26:59;1.35;;;0.85;;
3953;SDS011;1991;48.682;9.030;2022-10-16T04:29:25;1.40;;;0.85;;
3953;SDS011;1991;48.682;9.030;2022-10-16T04:31:50;3.97;;;1.02;;
3953;SDS011;1991;48.682;9.030;2022-10-16T04:34:16;1.80;;;0.90;;
3953;SDS011;1991;48.682;9.030;2022-10-16T04:36:42;13.90;;;1.42;;
3953;SDS011;1991;48.682;9.030;2022-10-16T04:39:07;4.45;;;0.93;;
3953;SDS011;1991;48.682;9.030;2022-10-16T04:41:33;4.35;;;0.90;;
3953;SDS011;1991;48.682;9.030;2022-10-16T04:43:58;3.22;;;0.95;;
3953;SDS011;1991;48.682;9.030;2022-10-16T04:46:24;4.05;;;0.85;;
3953;SDS011;1991;48.682;9.030;2022-10-16T04:48:49;2.85;;;0.70;;
3953;SDS011;1991;48.682;9.030;2022-10-16T04:51:15;3.00;;;0.70;;
3953;SDS011;1991;48.682;9.030;2022-10-16T04:53:41;4.10;;;1.35;;
3953;SDS011;1991;48.682;9.030;2022-10-16T04:56:06;4.70;;;1.15;;
3953;SDS011;1991;48.682;9.030;2022-10-16T04:58:32;3.42;;;1.00;;
3953;SDS011;1991;48.682;9.030;2022-10-16T05:00:58;1.33;;;0.88;;
3953;SDS011;1991;48.682;9.030;2022-10-16T05:03:23;2.38;;;0.98;;
3953;SDS011;1991;48.682;9.030;2022-10-16T05:05:49;4.70;;;0.90;;
3953;SDS011;1991;48.682;9.030;2022-10-16T05:08:15;1.77;;;1.13;;
3953;SDS011;1991;48.682;9.030;2022-10-16T05:10:41;2.88;;;1.10;;
3953;SDS011;1991;48.682;9.030;2022-10-16T05:13:08;2.22;;;1.13;;
3953;SDS011;1991;48.682;9.030;2022-10-16T05:15:33;2.83;;;1.00;;
3953;SDS011;1991;48.682;9.030;2022-10-16T05:17:59;5.13;;;1.20;;
3953;SDS011;1991;48.682;9.030;2022-10-16T05:20:25;2.55;;;1.40;;
3953;SDS011;1991;48.682;9.030;2022-10-16T05:22:51;2.75;;;1.20;;
3953;SDS011;1991;48.682;9.030;2022-10-16T05:25:16;1.83;;;1.63;;
3953;SDS011;1991;48.682;9.030;2022-10-16T05:27:43;5.95;;;1.17;;
3953;SDS011;1991;48.682;9.030;2022-10-16T05:30:08;1.77;;;0.98;;
3953;SDS011;1991;48.682;9.030;2022-10-16T05:32:34;3.17;;;1.00;;
3953;SDS011;1991;48.682;9.030;2022-10-16T05:35:00;3.67;;;1.50;;
3953;SDS011;1991;48.682;9.030;2022-10-16T05:37:27;2.85;;;1.23;;
3953;SDS011;1991;48.682;9.030;2022-10-16T05:39:52;3.08;;;0.95;;
3953;SDS011;1991;48.682;9.030;2022-10-16T05:42:18;3.28;;;0.95;;
3953;SDS011;1991;48.682;9.030;2022-10-16T05:44:44;2.65;;;1.00;;
3953;SDS011;1991;48.682;9.030;2022-10-16T05:47:09;1.90;;;1.30;;
3953;SDS011;1991;48.682;9.030;2022-10-16T05:49:37;4.43;;;1.60;;
3953;SDS011;1991;48.682;9.030;2022-10-16T05:52:02;7.15;;;1.38;;
3953;SDS011;1991;48.682;9.030;2022-10-16T05:54:28;10.55;;;6.15;;
3953;SDS011;1991;48.682;9.030;2022-10-16T05:56:53;8.50;;;2.00;;
3953;SDS011;1991;48.682;9.030;2022-10-16T05:59:19;4.25;;;2.38;;
3953;SDS011;1991;48.682;9.030;2022-10-16T06:01:44;5.72;;;1.52;;
3953;SDS011;1991;48.682;9.030;2022-10-16T06:04:10;2.13;;;1.50;;
3953;SDS011;1991;48.682;9.030;2022-10-16T06:06:36;3.05;;;1.33;;
3953;SDS011;1991;48.682;9.030;2022-10-16T06:09:02;5.15;;;1.70;;
3953;SDS011;1991;48.682;9.030;2022-10-16T06:11:29;2.58;;;1.48;;
3953;SDS011;1991;48.682;9.030;2022-10-16T06:13:56;1.63;;;1.17;;
3953;SDS011;1991;48.682;9.030;2022-10-16T06:16:24;3.60;;;1.83;;
3953;SDS011;1991;48.682;9.030;2022-10-16T06:18:51;3.40;;;1.15;;
3953;SDS011;1991;48.682;9.030;2022-10-16T06:21:18;1.83;;;1.00;;
3953;SDS011;1991;48.682;9.030;2022-10-16T06:23:46;1.90;;;0.90;;
3953;SDS011;1991;48.682;9.030;2022-10-16T06:26:13;1.13;;;1.02;;
3953;SDS011;1991;48.682;9.030;2022-10-16T06:28:41;1.25;;;1.10;;
3953;SDS011;1991;48.682;9.030;2022-10-16T06:31:07;3.17;;;1.40;;
3953;SDS011;1991;48.682;9.030;2022-10-16T06:33:34;1.85;;;1.02;;
3953;SDS011;1991;48.682;9.030;2022-10-16T06:36:04;1.20;;;1.10;;
3953;SDS011;1991;48.682;9.030;2022-10-16T06:38:30;1.33;;;1.15;;
3953;SDS011;1991;48.682;9.030;2022-10-16T06:40:56;3.92;;;1.27;;
3953;SDS011;1991;48.682;9.030;2022-10-16T06:43:22;7.15;;;1.60;;
3953;SDS011;1991;48.682;9.030;2022-10-16T06:45:54;1.45;;;1.10;;
3953;SDS011;1991;48.682;9.030;2022-10-16T06:48:21;2.63;;;1.30;;
3953;SDS011;1991;48.682;9.030;2022-10-16T06:50:56;4.75;;;1.20;;
3953;SDS011;1991;48.682;9.030;2022-10-16T06:53:22;4.57;;;1.33;;
3953;SDS011;1991;48.682;9.030;2022-10-16T06:55:48;2.58;;;0.90;;
3953;SDS011;1991;48.682;9.030;2022-10-16T06:58:14;3.35;;;1.00;;
3953;SDS011;1991;48.682;9.030;2022-10-16T07:00:39;3.30;;;1.00;;
3953;SDS011;1991;48.682;9.030;2022-10-16T07:03:05;3.58;;;1.10;;
3953;SDS011;1991;48.682;9.030;2022-10-16T07:05:30;1.65;;;1.08;;
3953;SDS011;1991;48.682;9.030;2022-10-16T07:07:56;3.17;;;0.98;;
3953;SDS011;1991;48.682;9.030;2022-10-16T07:10:21;4.32;;;1.08;;
3953;SDS011;1991;48.682;9.030;2022-10-16T07:12:50;2.75;;;1.00;;
3953;SDS011;1991;48.682;9.030;2022-10-16T07:15:15;3.47;;;1.00;;
3953;SDS011;1991;48.682;9.030;2022-10-16T07:17:41;2.65;;;1.63;;
3953;SDS011;1991;48.682;9.030;2022-10-16T07:20:06;3.25;;;1.40;;
3953;SDS011;1991;48.682;9.030;2022-10-16T07:22:32;2.85;;;1.13;;
3953;SDS011;1991;48.682;9.030;2022-10-16T07:24:58;2.30;;;1.30;;
3953;SDS011;1991;48.682;9.030;2022-10-16T07:27:24;1.65;;;0.90;;
3953;SDS011;1991;48.682;9.030;2022-10-16T07:29:49;3.60;;;0.98;;
3953;SDS011;1991;48.682;9.030;2022-10-16T07:32:15;1.17;;;0.80;;
3953;SDS011;1991;48.682;9.030;2022-10-16T07:34:41;3.47;;;1.40;;
3953;SDS011;1991;48.682;9.030;2022-10-16T07:37:07;5.15;;;1.38;;
3953;SDS011;1991;48.682;9.030;2022-10-16T07:39:32;2.13;;;1.05;;
3953;SDS011;1991;48.682;9.030;2022-10-16T07:41:58;2.00;;;0.93;;
3953;SDS011;1991;48.682;9.030;2022-10-16T07:44:24;1.35;;;1.15;;
3953;SDS011;1991;48.682;9.030;2022-10-16T07:46:49;2.92;;;1.15;;
3953;SDS011;1991;48.682;9.030;2022-10-16T07:49:15;2.55;;;1.05;;
3953;SDS011;1991;48.682;9.030;2022-10-16T07:51:40;2.60;;;1.00;;
3953;SDS011;1991;48.682;9.030;2022-10-16T07:54:07;4.80;;;1.58;;
3953;SDS011;1991;48.682;9.030;2022-10-16T07:56:34;1.73;;;1.13;;
3953;SDS011;1991;48.682;9.030;2022-10-16T07:58:59;4.97;;;1.10;;
3953;SDS011;1991;48.682;9.030;2022-10-16T08:01:25;2.20;;;1.20;;
3953;SDS011;1991;48.682;9.030;2022-10-16T08:03:51;3.60;;;1.15;;
3953;SDS011;1991;48.682;9.030;2022-10-16T08:06:18;1.73;;;1.13;;
3953;SDS011;1991;48.682;9.030;2022-10-16T08:08:44;3.00;;;1.20;;
3953;SDS011;1991;48.682;9.030;2022-10-16T08:11:09;3.38;;;1.30;;
3953;SDS011;1991;48.682;9.030;2022-10-16T08:13:35;2.30;;;1.08;;
3953;SDS011;1991;48.682;9.030;2022-10-16T08:16:02;3.40;;;1.20;;
3953;SDS011;1991;48.682;9.030;2022-10-16T08:18:32;2.60;;;1.05;;
3953;SDS011;1991;48.682;9.030;2022-10-16T08:20:59;2.15;;;0.80;;
3953;SDS011;1991;48.682;9.030;2022-10-16T08:23:25;2.75;;;0.90;;
3953;SDS011;1991;48.682;9.030;2022-10-16T08:25:52;5.80;;;1.10;;
3953;SDS011;1991;48.682;9.030;2022-10-16T08:28:18;4.07;;;1.02;;
3953;SDS011;1991;48.682;9.030;2022-10-16T08:30:44;2.40;;;1.00;;
3953;SDS011;1991;48.682;9.030;2022-10-16T08:33:10;3.30;;;0.85;;
3953;SDS011;1991;48.682;9.030;2022-10-16T08:35:36;2.03;;;0.98;;
3953;SDS011;1991;48.682;9.030;2022-10-16T08:38:05;2.80;;;0.82;;
3953;SDS011;1991;48.682;9.030;2022-10-16T08:40:32;2.85;;;0.82;;
3953;SDS011;1991;48.682;9.030;2022-10-16T08:48:49;3.80;;;0.80;;
3953;SDS011;1991;48.682;9.030;2022-10-16T08:51:24;1.58;;;0.80;;
3953;SDS011;1991;48.682;9.030;2022-10-16T08:54:01;4.65;;;1.42;;
3953;SDS011;1991;48.682;9.030;2022-10-16T08:56:29;2.90;;;0.80;;
3953;SDS011;1991;48.682;9.030;2022-10-16T08:58:55;1.10;;;0.80;;
3953;SDS011;1991;48.682;9.030;2022-10-16T09:01:23;2.70;;;1.17;;
3953;SDS011;1991;48.682;9.030;2022-10-16T09:17:45;0.93;;;0.77;;
3953;SDS011;1991;48.682;9.030;2022-10-16T09:23:18;1.00;;;0.70;;
3953;SDS011;1991;48.682;9.030;2022-10-16T09:25:59;2.42;;;0.93;;
3953;SDS011;1991;48.682;9.030;2022-10-16T09:28:25;4.28;;;0.93;;
3953;SDS011;1991;48.682;9.030;2022-10-16T09:30:51;4.78;;;0.80;;
3953;SDS011;1991;48.682;9.030;2022-10-16T09:33:18;2.13;;;1.00;;
3953;SDS011;1991;48.682;9.030;2022-10-16T09:35:47;5.72;;;1.23;;
3953;SDS011;1991;48.682;9.030;2022-10-16T09:38:28;4.43;;;0.90;;
3953;SDS011;1991;48.682;9.030;2022-10-16T09:41:11;2.63;;;0.90;;
3953;SDS011;1991;48.682;9.030;2022-10-16T09:43:46;3.60;;;0.70;;
3953;SDS011;1991;48.682;9.030;2022-10-16T09:48:57;3.65;;;0.90;;
3953;SDS011;1991;48.682;9.030;2022-10-16T09:51:43;1.38;;;0.75;;
3953;SDS011;1991;48.682;9.030;2022-10-16T09:56:39;4.78;;;1.10;;
3953;SDS011;1991;48.682;9.030;2022-10-16T09:59:12;2.00;;;1.00;;
3953;SDS011;1991;48.682;9.030;2022-10-16T10:01:47;2.63;;;0.80;;
3953;SDS011;1991;48.682;9.030;2022-10-16T10:04:20;3.22;;;0.93;;
3953;SDS011;1991;48.682;9.030;2022-10-16T10:06:48;5.35;;;0.82;;
3953;SDS011;1991;48.682;9.030;2022-10-16T10:11:59;1.08;;;0.70;;
3953;SDS011;1991;48.682;9.030;2022-10-16T10:14:46;1.95;;;0.80;;
3953;SDS011;1991;48.682;9.030;2022-10-16T10:17:15;3.85;;;0.88;;
3953;SDS011;1991;48.682;9.030;2022-10-16T10:22:21;5.18;;;0.93;;
3953;SDS011;1991;48.682;9.030;2022-10-16T10:25:21;3.08;;;0.80;;
3953;SDS011;1991;48.682;9.030;2022-10-16T10:34:02;3.45;;;0.80;;
3953;SDS011;1991;48.682;9.030;2022-10-16T10:36:56;3.90;;;0.82;;
3953;SDS011;1991;48.682;9.030;2022-10-16T10:39:43;2.60;;;1.02;;
3953;SDS011;1991;48.682;9.030;2022-10-16T10:42:18;1.88;;;0.93;;
3953;SDS011;1991;48.682;9.030;2022-10-16T10:45:18;5.53;;;0.88;;
3953;SDS011;1991;48.682;9.030;2022-10-16T10:50:57;0.73;;;0.68;;
3953;SDS011;1991;48.682;9.030;2022-10-16T11:07:27;2.70;;;1.05;;
3953;SDS011;1991;48.682;9.030;2022-10-16T11:10:02;3.95;;;0.93;;
3953;SDS011;1991;48.682;9.030;2022-10-16T11:12:42;1.38;;;1.00;;
3953;SDS011;1991;48.682;9.030;2022-10-16T11:15:12;3.38;;;1.48;;
3953;SDS011;1991;48.682;9.030;2022-10-16T11:17:44;0.95;;;0.60;;
3953;SDS011;1991;48.682;9.030;2022-10-16T11:20:22;1.60;;;1.05;;
3953;SDS011;1991;48.682;9.030;2022-10-16T11:25:45;1.77;;;0.98;;
3953;SDS011;1991;48.682;9.030;2022-10-16T11:28:27;3.50;;;1.00;;
3953;SDS011;1991;48.682;9.030;2022-10-16T11:31:08;3.55;;;0.90;;
3953;SDS011;1991;48.682;9.030;2022-10-16T11:33:44;2.13;;;0.77;;
3953;SDS011;1991;48.682;9.030;2022-10-16T11:36:23;5.03;;;1.20;;
3953;SDS011;1991;48.682;9.030;2022-10-16T11:47:35;4.05;;;1.10;;
3953;SDS011;1991;48.682;9.030;2022-10-16T11:53:09;3.83;;;1.10;;
3953;SDS011;1991;48.682;9.030;2022-10-16T11:55:48;2.78;;;0.85;;
3953;SDS011;1991;48.682;9.030;2022-10-16T12:09:10;1.63;;;0.80;;
3953;SDS011;1991;48.682;9.030;2022-10-16T12:11:52;1.20;;;1.00;;
3953;SDS011;1991;48.682;9.030;2022-10-16T12:14:20;4.10;;;1.02;;
3953;SDS011;1991;48.682;9.030;2022-10-16T12:19:22;2.05;;;0.80;;
3953;SDS011;1991;48.682;9.030;2022-10-16T12:21:50;1.15;;;0.85;;
3953;SDS011;1991;48.682;9.030;2022-10-16T12:24:36;1.10;;;1.02;;
3953;SDS011;1991;48.682;9.030;2022-10-16T12:29:57;1.98;;;0.82;;
3953;SDS011;1991;48.682;9.030;2022-10-16T12:32:29;3.10;;;0.85;;
3953;SDS011;1991;48.682;9.030;2022-10-16T12:35:00;1.02;;;0.93;;
3953;SDS011;1991;48.682;9.030;2022-10-16T12:37:34;1.85;;;1.08;;
3953;SDS011;1991;48.682;9.030;2022-10-16T12:40:22;4.60;;;0.90;;
3953;SDS011;1991;48.682;9.030;2022-10-16T12:42:49;3.22;;;1.23;;
3953;SDS011;1991;48.682;9.030;2022-10-16T12:45:25;2.80;;;1.05;;
3953;SDS011;1991;48.682;9.030;2022-10-16T12:47:56;2.90;;;0.95;;
3953;SDS011;1991;48.682;9.030;2022-10-16T12:50:27;1.10;;;0.90;;
3953;SDS011;1991;48.682;9.030;2022-10-16T12:52:53;1.63;;;1.00;;
3953;SDS011;1991;48.682;9.030;2022-10-16T12:55:20;3.92;;;0.90;;
3953;SDS011;1991;48.682;9.030;2022-10-16T13:00:43;4.75;;;0.80;;
3953;SDS011;1991;48.682;9.030;2022-10-16T13:09:05;1.20;;;0.90;;
3953;SDS011;1991;48.682;9.030;2022-10-16T13:11:55;3.20;;;1.00;;
3953;SDS011;1991;48.682;9.030;2022-10-16T13:25:41;1.48;;;1.20;;
3953;SDS011;1991;48.682;9.030;2022-10-16T13:28:28;2.10;;;1.02;;
3953;SDS011;1991;48.682;9.030;2022-10-16T13:30:57;3.22;;;1.20;;
3953;SDS011;1991;48.682;9.030;2022-10-16T13:33:30;1.95;;;1.27;;
3953;SDS011;1991;48.682;9.030;2022-10-16T13:36:02;2.15;;;1.02;;
3953;SDS011;1991;48.682;9.030;2022-10-16T13:38:33;1.30;;;1.00;;
3953;SDS011;1991;48.682;9.030;2022-10-16T13:41:12;1.40;;;1.30;;
3953;SDS011;1991;48.682;9.030;2022-10-16T13:43:48;3.15;;;1.27;;
3953;SDS011;1991;48.682;9.030;2022-10-16T13:46:17;4.68;;;1.42;;
3953;SDS011;1991;48.682;9.030;2022-10-16T13:48:44;2.15;;;1.00;;
3953;SDS011;1991;48.682;9.030;2022-10-16T13:51:21;1.20;;;1.10;;
3953;SDS011;1991;48.682;9.030;2022-10-16T13:53:51;5.95;;;1.20;;
3953;SDS011;1991;48.682;9.030;2022-10-16T13:56:18;3.40;;;1.25;;
3953;SDS011;1991;48.682;9.030;2022-10-16T13:58:46;0.90;;;0.90;;
3953;SDS011;1991;48.682;9.030;2022-10-16T14:01:23;3.35;;;1.10;;
3953;SDS011;1991;48.682;9.030;2022-10-16T14:03:51;3.22;;;1.20;;
3953;SDS011;1991;48.682;9.030;2022-10-16T14:06:19;1.60;;;1.08;;
3953;SDS011;1991;48.682;9.030;2022-10-16T14:08:53;3.05;;;1.23;;
3953;SDS011;1991;48.682;9.030;2022-10-16T14:11:25;1.58;;;1.05;;
3953;SDS011;1991;48.682;9.030;2022-10-16T14:13:51;2.90;;;1.23;;
3953;SDS011;1991;48.682;9.030;2022-10-16T14:16:18;2.53;;;1.15;;
3953;SDS011;1991;48.682;9.030;2022-10-16T14:18:54;3.28;;;1.10;;
3953;SDS011;1991;48.682;9.030;2022-10-16T14:21:25;2.97;;;1.25;;
3953;SDS011;1991;48.682;9.030;2022-10-16T14:23:52;4.35;;;1.23;;
3953;SDS011;1991;48.682;9.030;2022-10-16T14:26:20;3.88;;;1.23;;
3953;SDS011;1991;48.682;9.030;2022-10-16T14:32:00;3.03;;;1.13;;
3953;SDS011;1991;48.682;9.030;2022-10-16T14:34:31;4.20;;;1.20;;
3953;SDS011;1991;48.682;9.030;2022-10-16T14:37:06;2.08;;;1.40;;
3953;SDS011;1991;48.682;9.030;2022-10-16T14:39:51;3.53;;;1.00;;
3953;SDS011;1991;48.682;9.030;2022-10-16T14:42:18;1.80;;;1.00;;
3953;SDS011;1991;48.682;9.030;2022-10-16T14:44:45;2.00;;;1.20;;
3953;SDS011;1991;48.682;9.030;2022-10-16T14:47:16;2.05;;;1.15;;
3953;SDS011;1991;48.682;9.030;2022-10-16T14:49:49;1.40;;;1.10;;
3953;SDS011;1991;48.682;9.030;2022-10-16T14:52:16;2.97;;;1.23;;
3953;SDS011;1991;48.682;9.030;2022-10-16T14:54:42;2.40;;;1.30;;
3953;SDS011;1991;48.682;9.030;2022-10-16T14:57:22;2.35;;;1.20;;
3953;SDS011;1991;48.682;9.030;2022-10-16T14:59:52;2.75;;;1.00;;
3953;SDS011;1991;48.682;9.030;2022-10-16T15:04:58;4.07;;;1.25;;
3953;SDS011;1991;48.682;9.030;2022-10-16T15:07:38;1.67;;;1.00;;
3953;SDS011;1991;48.682;9.030;2022-10-16T15:10:03;3.25;;;1.65;;
3953;SDS011;1991;48.682;9.030;2022-10-16T15:12:29;3.33;;;1.15;;
3953;SDS011;1991;48.682;9.030;2022-10-16T15:14:55;3.53;;;1.30;;
3953;SDS011;1991;48.682;9.030;2022-10-16T15:17:21;4.85;;;1.10;;
3953;SDS011;1991;48.682;9.030;2022-10-16T15:19:46;1.00;;;0.85;;
3953;SDS011;1991;48.682;9.030;2022-10-16T15:22:12;2.25;;;1.33;;
3953;SDS011;1991;48.682;9.030;2022-10-16T15:24:38;2.00;;;1.10;;
3953;SDS011;1991;48.682;9.030;2022-10-16T15:27:03;2.55;;;1.08;;
3953;SDS011;1991;48.682;9.030;2022-10-16T15:29:29;3.15;;;1.33;;
3953;SDS011;1991;48.682;9.030;2022-10-16T15:31:54;7.97;;;1.58;;
3953;SDS011;1991;48.682;9.030;2022-10-16T15:34:20;4.30;;;2.15;;
3953;SDS011;1991;48.682;9.030;2022-10-16T15:36:46;5.65;;;1.98;;
3953;SDS011;1991;48.682;9.030;2022-10-16T15:41:38;5.13;;;1.52;;
3953;SDS011;1991;48.682;9.030;2022-10-16T15:44:04;3.78;;;1.80;;
3953;SDS011;1991;48.682;9.030;2022-10-16T15:46:29;3.30;;;1.95;;
3953;SDS011;1991;48.682;9.030;2022-10-16T15:48:56;3.30;;;2.08;;
3953;SDS011;1991;48.682;9.030;2022-10-16T15:51:23;6.35;;;2.28;;
3953;SDS011;1991;48.682;9.030;2022-10-16T15:53:49;2.45;;;2.25;;
3953;SDS011;1991;48.682;9.030;2022-10-16T15:56:16;3.97;;;1.95;;
3953;SDS011;1991;48.682;9.030;2022-10-16T15:58:42;1.90;;;1.70;;
3953;SDS011;1991;48.682;9.030;2022-10-16T16:01:09;4.85;;;1.70;;
3953;SDS011;1991;48.682;9.030;2022-10-16T16:03:35;2.95;;;1.35;;
3953;SDS011;1991;48.682;9.030;2022-10-16T16:06:09;5.13;;;1.70;;
3953;SDS011;1991;48.682;9.030;2022-10-16T16:08:36;6.57;;;1.88;;
3953;SDS011;1991;48.682;9.030;2022-10-16T16:11:06;7.72;;;2.28;;
3953;SDS011;1991;48.682;9.030;2022-10-16T16:13:34;7.07;;;1.77;;
3953;SDS011;1991;48.682;9.030;2022-10-16T16:16:04;8.40;;;2.10;;
3953;SDS011;1991;48.682;9.030;2022-10-16T16:18:35;4.88;;;2.20;;
3953;SDS011;1991;48.682;9.030;2022-10-16T16:21:00;5.03;;;1.80;;
3953;SDS011;1991;48.682;9.030;2022-10-16T16:23:26;8.73;;;1.77;;
3953;SDS011;1991;48.682;9.030;2022-10-16T16:26:11;7.80;;;1.80;;
3953;SDS011;1991;48.682;9.030;2022-10-16T16:28:40;12.38;;;2.00;;
3953;SDS011;1991;48.682;9.030;2022-10-16T16:31:07;5.30;;;1.70;;
3953;SDS011;1991;48.682;9.030;2022-10-16T16:33:33;4.82;;;1.85;;
3953;SDS011;1991;48.682;9.030;2022-10-16T16:35:59;11.77;;;2.22;;
3953;SDS011;1991;48.682;9.030;2022-10-16T16:38:25;9.85;;;3.05;;
3953;SDS011;1991;48.682;9.030;2022-10-16T16:40:52;5.75;;;2.60;;
3953;SDS011;1991;48.682;9.030;2022-10-16T16:43:18;6.82;;;2.95;;
3953;SDS011;1991;48.682;9.030;2022-10-16T16:45:44;8.00;;;2.40;;
3953;SDS011;1991;48.682;9.030;2022-10-16T16:48:10;6.82;;;2.50;;
3953;SDS011;1991;48.682;9.030;2022-10-16T16:50:35;8.20;;;3.33;;
3953;SDS011;1991;48.682;9.030;2022-10-16T16:53:01;6.97;;;2.80;;
3953;SDS011;1991;48.682;9.030;2022-10-16T16:55:27;4.47;;;2.90;;
3953;SDS011;1991;48.682;9.030;2022-10-16T16:57:53;6.60;;;2.90;;
3953;SDS011;1991;48.682;9.030;2022-10-16T17:00:18;8.63;;;2.25;;
3953;SDS011;1991;48.682;9.030;2022-10-16T17:02:47;6.82;;;2.20;;
3953;SDS011;1991;48.682;9.030;2022-10-16T17:05:13;8.10;;;2.70;;
3953;SDS011;1991;48.682;9.030;2022-10-16T17:07:39;10.82;;;3.08;;
3953;SDS011;1991;48.682;9.030;2022-10-16T17:10:05;12.20;;;3.72;;
3953;SDS011;1991;48.682;9.030;2022-10-16T17:12:32;6.13;;;3.63;;
3953;SDS011;1991;48.682;9.030;2022-10-16T17:14:58;21.45;;;6.97;;
3953;SDS011;1991;48.682;9.030;2022-10-16T17:17:23;9.18;;;6.03;;
3953;SDS011;1991;48.682;9.030;2022-10-16T17:19:49;10.38;;;4.72;;
3953;SDS011;1991;48.682;9.030;2022-10-16T17:22:16;8.98;;;4.00;;
3953;SDS011;1991;48.682;9.030;2022-10-16T17:24:41;6.25;;;4.10;;
3953;SDS011;1991;48.682;9.030;2022-10-16T17:27:07;5.03;;;3.90;;
3953;SDS011;1991;48.682;9.030;2022-10-16T17:29:34;5.75;;;2.72;;
3953;SDS011;1991;48.682;9.030;2022-10-16T17:31:59;6.45;;;3.22;;
3953;SDS011;1991;48.682;9.030;2022-10-16T17:34:25;9.00;;;3.55;;